sensor_id;sensor_type;location;lat;lon;timestamp;pressure;altitude;pressure_sealevel;temperature;humidity
56514;BME280;62152;52.078;8.414;2022-08-03T00:00:12;100155.34;;;23.45;53.58
56514;BME280;62152;52.078;8.414;2022-08-03T00:01:58;100149.00;;;23.45;53.70
56514;BME280;62152;52.078;8.414;2022-08-03T00:03:46;100151.00;;;23.44;53.54
56514;BME280;62152;52.078;8.414;2022-08-03T00:05:32;100147.44;;;23.44;53.64
56514;BME280;62152;52.078;8.414;2022-08-03T00:07:20;100154.97;;;23.43;53.80
56514;BME280;62152;52.078;8.414;2022-08-03T00:09:05;100147.44;;;23.44;53.77
56514;BME280;62152;52.078;8.414;2022-08-03T00:10:50;100146.66;;;23.43;53.60
56514;BME280;62152;52.078;8.414;2022-08-03T00:12:35;100152.97;;;23.44;53.51
56514;BME280;62152;52.078;8.414;2022-08-03T00:14:20;100149.41;;;23.43;53.54
56514;BME280;62152;52.078;8.414;2022-08-03T00:16:05;100150.22;;;23.44;53.54
56514;BME280;62152;52.078;8.414;2022-08-03T00:17:51;100145.88;;;23.43;53.71
56514;BME280;62152;52.078;8.414;2022-08-03T00:19:36;100143.88;;;23.43;53.68
56514;BME280;62152;52.078;8.414;2022-08-03T00:21:21;100143.88;;;23.43;53.57
56514;BME280;62152;52.078;8.414;2022-08-03T00:23:09;100151.41;;;23.43;53.88
56514;BME280;62152;52.078;8.414;2022-08-03T00:24:54;100137.56;;;23.43;53.62
56514;BME280;62152;52.078;8.414;2022-08-03T00:26:40;100134.78;;;23.43;53.48
56514;BME280;62152;52.078;8.414;2022-08-03T00:28:25;100147.06;;;23.42;53.71
56514;BME280;62152;52.078;8.414;2022-08-03T00:30:11;100145.09;;;23.42;53.84
56514;BME280;62152;52.078;8.414;2022-08-03T00:31:56;100139.53;;;23.42;53.60
56514;BME280;62152;52.078;8.414;2022-08-03T00:33:41;100135.22;;;23.41;53.90
56514;BME280;62152;52.078;8.414;2022-08-03T00:35:27;100137.56;;;23.43;53.65
56514;BME280;62152;52.078;8.414;2022-08-03T00:37:14;100136.00;;;23.42;53.59
56514;BME280;62152;52.078;8.414;2022-08-03T00:39:02;100140.34;;;23.43;53.66
56514;BME280;62152;52.078;8.414;2022-08-03T00:40:47;100135.22;;;23.41;53.53
56514;BME280;62152;52.078;8.414;2022-08-03T00:42:33;100148.25;;;23.41;53.91
56514;BME280;62152;52.078;8.414;2022-08-03T00:44:16;100134.41;;;23.41;53.66
56514;BME280;62152;52.078;8.414;2022-08-03T00:46:01;100128.88;;;23.41;53.88
56514;BME280;62152;52.078;8.414;2022-08-03T00:47:46;100141.94;;;23.40;53.69
56514;BME280;62152;52.078;8.414;2022-08-03T00:49:31;100125.34;;;23.40;53.50
56514;BME280;62152;52.078;8.414;2022-08-03T00:51:17;100127.28;;;23.40;53.70
56514;BME280;62152;52.078;8.414;2022-08-03T00:53:04;100127.28;;;23.40;53.78
56514;BME280;62152;52.078;8.414;2022-08-03T00:54:53;100129.25;;;23.39;53.83
56514;BME280;62152;52.078;8.414;2022-08-03T00:56:40;100130.47;;;23.38;53.79
56514;BME280;62152;52.078;8.414;2022-08-03T00:58:26;100126.50;;;23.39;54.04
56514;BME280;62152;52.078;8.414;2022-08-03T01:00:16;100124.53;;;23.40;53.71
56514;BME280;62152;52.078;8.414;2022-08-03T01:02:03;100123.72;;;23.39;53.50
56514;BME280;62152;52.078;8.414;2022-08-03T01:03:48;100123.34;;;23.41;53.71
56514;BME280;62152;52.078;8.414;2022-08-03T01:05:40;100123.72;;;23.39;53.72
56514;BME280;62152;52.078;8.414;2022-08-03T01:07:44;100123.72;;;23.39;53.69
56514;BME280;62152;52.078;8.414;2022-08-03T01:09:55;100120.19;;;23.39;53.62
56514;BME280;62152;52.078;8.414;2022-08-03T01:11:50;100118.59;;;23.38;53.78
56514;BME280;62152;52.078;8.414;2022-08-03T01:13:50;100121.38;;;23.38;53.90
56514;BME280;62152;52.078;8.414;2022-08-03T01:15:48;100119.41;;;23.38;53.72
56514;BME280;62152;52.078;8.414;2022-08-03T01:17:48;100118.59;;;23.38;53.75
56514;BME280;62152;52.078;8.414;2022-08-03T01:19:45;100115.06;;;23.37;53.62
56514;BME280;62152;52.078;8.414;2022-08-03T01:21:46;100113.06;;;23.38;53.99
56514;BME280;62152;52.078;8.414;2022-08-03T01:24:01;100115.84;;;23.38;53.65
56514;BME280;62152;52.078;8.414;2022-08-03T01:26:09;100114.25;;;23.37;53.99
56514;BME280;62152;52.078;8.414;2022-08-03T01:28:21;100123.34;;;23.37;54.08
56514;BME280;62152;52.078;8.414;2022-08-03T01:30:20;100120.59;;;23.37;54.19
56514;BME280;62152;52.078;8.414;2022-08-03T01:32:12;100107.94;;;23.36;54.06
56514;BME280;62152;52.078;8.414;2022-08-03T01:34:07;100117.03;;;23.37;53.59
56514;BME280;62152;52.078;8.414;2022-08-03T01:35:59;100110.31;;;23.38;54.05
56514;BME280;62152;52.078;8.414;2022-08-03T01:37:52;100114.25;;;23.37;53.76
56514;BME280;62152;52.078;8.414;2022-08-03T01:39:43;100113.47;;;23.36;53.85
56514;BME280;62152;52.078;8.414;2022-08-03T01:41:30;100118.22;;;23.36;54.09
56514;BME280;62152;52.078;8.414;2022-08-03T01:43:22;100114.25;;;23.37;53.91
56514;BME280;62152;52.078;8.414;2022-08-03T01:45:13;100107.16;;;23.36;53.74
56514;BME280;62152;52.078;8.414;2022-08-03T01:47:05;100117.03;;;23.37;53.93
56514;BME280;62152;52.078;8.414;2022-08-03T01:48:54;100104.38;;;23.36;54.04
56514;BME280;62152;52.078;8.414;2022-08-03T01:50:43;100110.72;;;23.36;53.86
56514;BME280;62152;52.078;8.414;2022-08-03T01:52:32;100108.34;;;23.35;54.03
56514;BME280;62152;52.078;8.414;2022-08-03T01:54:23;100107.16;;;23.36;53.95
56514;BME280;62152;52.078;8.414;2022-08-03T01:56:11;100107.94;;;23.36;53.74
56514;BME280;62152;52.078;8.414;2022-08-03T01:58:02;100098.84;;;23.36;53.65
56514;BME280;62152;52.078;8.414;2022-08-03T01:59:53;100105.59;;;23.35;54.02
56514;BME280;62152;52.078;8.414;2022-08-03T02:01:42;100106.38;;;23.35;53.94
56514;BME280;62152;52.078;8.414;2022-08-03T02:03:35;100102.41;;;23.36;54.04
56514;BME280;62152;52.078;8.414;2022-08-03T02:05:23;100098.84;;;23.36;53.75
56514;BME280;62152;52.078;8.414;2022-08-03T02:07:13;100097.28;;;23.35;53.79
56514;BME280;62152;52.078;8.414;2022-08-03T02:09:01;100098.84;;;23.36;53.89
56514;BME280;62152;52.078;8.414;2022-08-03T02:10:49;100097.28;;;23.35;53.88
56514;BME280;62152;52.078;8.414;2022-08-03T02:12:37;100093.72;;;23.34;53.61
56514;BME280;62152;52.078;8.414;2022-08-03T02:14:27;100097.28;;;23.35;53.94
56514;BME280;62152;52.078;8.414;2022-08-03T02:16:13;100105.97;;;23.33;54.23
56514;BME280;62152;52.078;8.414;2022-08-03T02:17:59;100104.81;;;23.34;54.04
56514;BME280;62152;52.078;8.414;2022-08-03T02:19:52;100097.66;;;23.33;53.95
56514;BME280;62152;52.078;8.414;2022-08-03T02:21:40;100100.06;;;23.35;53.89
56514;BME280;62152;52.078;8.414;2022-08-03T02:23:29;100108.34;;;23.35;53.81
56514;BME280;62152;52.078;8.414;2022-08-03T02:25:15;100111.13;;;23.35;54.08
56514;BME280;62152;52.078;8.414;2022-08-03T02:27:06;100101.25;;;23.34;54.17
56514;BME280;62152;52.078;8.414;2022-08-03T02:29:02;100105.19;;;23.33;54.13
56514;BME280;62152;52.078;8.414;2022-08-03T02:30:54;100102.03;;;23.34;54.30
56514;BME280;62152;52.078;8.414;2022-08-03T02:32:50;100101.63;;;23.32;54.04
56514;BME280;62152;52.078;8.414;2022-08-03T02:34:41;100101.25;;;23.34;53.89
56514;BME280;62152;52.078;8.414;2022-08-03T02:36:37;100096.88;;;23.33;54.08
56514;BME280;62152;52.078;8.414;2022-08-03T02:38:31;100102.41;;;23.33;54.24
56514;BME280;62152;52.078;8.414;2022-08-03T02:40:20;100096.88;;;23.33;54.09
56514;BME280;62152;52.078;8.414;2022-08-03T02:42:11;100101.25;;;23.34;53.98
56514;BME280;62152;52.078;8.414;2022-08-03T02:44:06;100090.56;;;23.32;54.08
56514;BME280;62152;52.078;8.414;2022-08-03T02:45:53;100084.25;;;23.32;54.05
56514;BME280;62152;52.078;8.414;2022-08-03T02:47:40;100093.38;;;23.29;53.99
56514;BME280;62152;52.078;8.414;2022-08-03T02:49:28;100084.25;;;23.32;54.07
56514;BME280;62152;52.078;8.414;2022-08-03T02:51:17;100098.06;;;23.32;54.26
56514;BME280;62152;52.078;8.414;2022-08-03T02:53:09;100089.00;;;23.31;54.24
56514;BME280;62152;52.078;8.414;2022-08-03T02:54:59;100091.75;;;23.31;54.26
56514;BME280;62152;52.078;8.414;2022-08-03T02:56:47;100088.22;;;23.31;54.10
56514;BME280;62152;52.078;8.414;2022-08-03T02:58:33;100085.44;;;23.31;54.13
56514;BME280;62152;52.078;8.414;2022-08-03T03:00:22;100089.78;;;23.32;54.06
56514;BME280;62152;52.078;8.414;2022-08-03T03:02:08;100090.97;;;23.31;54.34
56514;BME280;62152;52.078;8.414;2022-08-03T03:03:56;100088.22;;;23.31;54.08
56514;BME280;62152;52.078;8.414;2022-08-03T03:05:44;100082.66;;;23.31;54.18
56514;BME280;62152;52.078;8.414;2022-08-03T03:07:31;100090.97;;;23.31;53.88
56514;BME280;62152;52.078;8.414;2022-08-03T03:09:20;100095.31;;;23.32;54.18
56514;BME280;62152;52.078;8.414;2022-08-03T03:11:07;100100.06;;;23.31;54.20
56514;BME280;62152;52.078;8.414;2022-08-03T03:12:56;100096.50;;;23.31;54.08
56514;BME280;62152;52.078;8.414;2022-08-03T03:14:43;100099.28;;;23.31;54.19
56514;BME280;62152;52.078;8.414;2022-08-03T03:16:29;100092.94;;;23.30;54.11
56514;BME280;62152;52.078;8.414;2022-08-03T03:18:16;100092.16;;;23.30;54.34
56514;BME280;62152;52.078;8.414;2022-08-03T03:20:02;100099.28;;;23.31;53.83
56514;BME280;62152;52.078;8.414;2022-08-03T03:21:50;100089.41;;;23.30;54.13
56514;BME280;62152;52.078;8.414;2022-08-03T03:23:39;100094.56;;;23.28;53.69
56514;BME280;62152;52.078;8.414;2022-08-03T03:25:30;100093.78;;;23.27;54.28
56514;BME280;62152;52.078;8.414;2022-08-03T03:27:17;100093.38;;;23.25;53.70
56514;BME280;62152;52.078;8.414;2022-08-03T03:29:03;100090.63;;;23.22;53.78
56514;BME280;62152;52.078;8.414;2022-08-03T03:30:49;100095.78;;;23.19;54.14
56514;BME280;62152;52.078;8.414;2022-08-03T03:32:34;100092.22;;;23.19;54.09
56514;BME280;62152;52.078;8.414;2022-08-03T03:34:20;100087.88;;;23.18;53.85
56514;BME280;62152;52.078;8.414;2022-08-03T03:36:06;100093.41;;;23.18;54.10
56514;BME280;62152;52.078;8.414;2022-08-03T03:37:52;100093.00;;;23.19;53.53
56514;BME280;62152;52.078;8.414;2022-08-03T03:39:37;100096.16;;;23.22;53.67
56514;BME280;62152;52.078;8.414;2022-08-03T03:41:25;100093.00;;;23.19;53.71
56514;BME280;62152;52.078;8.414;2022-08-03T03:43:11;100094.66;;;23.10;53.62
56514;BME280;62152;52.078;8.414;2022-08-03T03:44:57;100092.72;;;23.00;53.51
56514;BME280;62152;52.078;8.414;2022-08-03T03:46:43;100091.53;;;22.97;53.13
56514;BME280;62152;52.078;8.414;2022-08-03T03:48:28;100104.97;;;22.95;53.22
56514;BME280;62152;52.078;8.414;2022-08-03T03:50:10;100097.06;;;23.01;52.99
56514;BME280;62152;52.078;8.414;2022-08-03T03:51:56;100098.22;;;23.03;52.73
56514;BME280;62152;52.078;8.414;2022-08-03T03:53:54;100091.16;;;22.95;52.88
56514;BME280;62152;52.078;8.414;2022-08-03T03:55:40;100095.16;;;22.87;52.93
56514;BME280;62152;52.078;8.414;2022-08-03T03:57:28;100095.91;;;22.84;52.75
56514;BME280;62152;52.078;8.414;2022-08-03T03:59:13;100096.72;;;22.81;53.07
56514;BME280;62152;52.078;8.414;2022-08-03T04:00:59;100090.81;;;22.79;53.13
56514;BME280;62152;52.078;8.414;2022-08-03T04:02:45;100093.19;;;22.73;53.19
56514;BME280;62152;52.078;8.414;2022-08-03T04:04:30;100092.38;;;22.80;53.27
56514;BME280;62152;52.078;8.414;2022-08-03T04:06:28;100105.38;;;22.83;52.90
56514;BME280;62152;52.078;8.414;2022-08-03T04:08:26;100108.16;;;22.83;52.90
56514;BME280;62152;52.078;8.414;2022-08-03T04:10:30;100103.00;;;22.92;53.03
56514;BME280;62152;52.078;8.414;2022-08-03T04:12:35;100099.44;;;23.02;52.76
56514;BME280;62152;52.078;8.414;2022-08-03T04:14:27;100094.28;;;23.04;52.59
56514;BME280;62152;52.078;8.414;2022-08-03T04:16:20;100099.00;;;23.07;52.93
56514;BME280;62152;52.078;8.414;2022-08-03T04:18:12;100094.28;;;23.04;52.56
56514;BME280;62152;52.078;8.414;2022-08-03T04:20:02;100093.84;;;23.09;52.72
56514;BME280;62152;52.078;8.414;2022-08-03T04:21:51;100098.19;;;23.10;52.47
56514;BME280;62152;52.078;8.414;2022-08-03T04:23:45;100097.00;;;23.11;52.55
56514;BME280;62152;52.078;8.414;2022-08-03T04:25:36;100097.00;;;23.11;52.69
56514;BME280;62152;52.078;8.414;2022-08-03T04:27:29;100096.63;;;23.13;52.50
56514;BME280;62152;52.078;8.414;2022-08-03T04:29:24;100096.22;;;23.14;52.52
56514;BME280;62152;52.078;8.414;2022-08-03T04:31:12;100101.75;;;23.14;52.42
56514;BME280;62152;52.078;8.414;2022-08-03T04:33:01;100097.78;;;23.15;52.58
56514;BME280;62152;52.078;8.414;2022-08-03T04:34:46;100097.00;;;23.15;52.38
56514;BME280;62152;52.078;8.414;2022-08-03T04:36:37;100103.31;;;23.15;52.67
56514;BME280;62152;52.078;8.414;2022-08-03T04:38:29;100103.31;;;23.15;52.65
56514;BME280;62152;52.078;8.414;2022-08-03T04:40:24;100104.09;;;23.16;52.65
56514;BME280;62152;52.078;8.414;2022-08-03T04:42:15;100106.88;;;23.16;52.66
56514;BME280;62152;52.078;8.414;2022-08-03T04:44:08;100098.16;;;23.17;52.46
56514;BME280;62152;52.078;8.414;2022-08-03T04:45:55;100107.25;;;23.18;52.71
56514;BME280;62152;52.078;8.414;2022-08-03T04:47:42;100112.00;;;23.17;52.79
56514;BME280;62152;52.078;8.414;2022-08-03T04:49:28;100112.00;;;23.17;52.78
56514;BME280;62152;52.078;8.414;2022-08-03T04:51:14;100110.78;;;23.18;52.62
56514;BME280;62152;52.078;8.414;2022-08-03T04:53:00;100108.03;;;23.18;52.89
56514;BME280;62152;52.078;8.414;2022-08-03T04:54:45;100105.25;;;23.18;52.63
56514;BME280;62152;52.078;8.414;2022-08-03T04:56:30;100108.81;;;23.19;52.74
56514;BME280;62152;52.078;8.414;2022-08-03T04:58:16;100100.50;;;23.19;52.74
56514;BME280;62152;52.078;8.414;2022-08-03T05:00:06;100113.97;;;23.20;52.54
56514;BME280;62152;52.078;8.414;2022-08-03T05:01:52;100105.25;;;23.18;52.93
56514;BME280;62152;52.078;8.414;2022-08-03T05:03:37;100110.41;;;23.20;52.80
56514;BME280;62152;52.078;8.414;2022-08-03T05:05:22;100102.91;;;23.20;52.54
56514;BME280;62152;52.078;8.414;2022-08-03T05:07:07;100112.78;;;23.22;52.61
56514;BME280;62152;52.078;8.414;2022-08-03T05:08:52;100113.97;;;23.20;52.95
56514;BME280;62152;52.078;8.414;2022-08-03T05:10:38;100110.78;;;23.22;52.96
56514;BME280;62152;52.078;8.414;2022-08-03T05:12:23;100117.13;;;23.23;52.83
56514;BME280;62152;52.078;8.414;2022-08-03T05:14:08;100116.31;;;23.22;52.65
56514;BME280;62152;52.078;8.414;2022-08-03T05:15:56;100113.56;;;23.22;52.80
56514;BME280;62152;52.078;8.414;2022-08-03T05:17:41;100119.09;;;23.22;52.67
56514;BME280;62152;52.078;8.414;2022-08-03T05:19:26;100118.31;;;23.22;52.59
56514;BME280;62152;52.078;8.414;2022-08-03T05:21:11;100114.75;;;23.21;52.66
56514;BME280;62152;52.078;8.414;2022-08-03T05:22:57;100119.88;;;23.23;52.73
56514;BME280;62152;52.078;8.414;2022-08-03T05:24:44;100120.25;;;23.25;52.92
56514;BME280;62152;52.078;8.414;2022-08-03T05:26:29;100118.69;;;23.24;52.90
56514;BME280;62152;52.078;8.414;2022-08-03T05:28:14;100117.91;;;23.23;52.60
56514;BME280;62152;52.078;8.414;2022-08-03T05:29:59;100118.69;;;23.24;52.74
56514;BME280;62152;52.078;8.414;2022-08-03T05:31:47;100127.34;;;23.26;52.91
56514;BME280;62152;52.078;8.414;2022-08-03T05:33:33;100124.59;;;23.26;52.78
56514;BME280;62152;52.078;8.414;2022-08-03T05:35:18;100125.78;;;23.25;52.89
56514;BME280;62152;52.078;8.414;2022-08-03T05:37:03;100123.81;;;23.25;53.08
56514;BME280;62152;52.078;8.414;2022-08-03T05:38:48;100119.84;;;23.26;52.83
56514;BME280;62152;52.078;8.414;2022-08-03T05:40:33;100113.16;;;23.27;52.76
56514;BME280;62152;52.078;8.414;2022-08-03T05:42:18;100120.66;;;23.27;52.75
56514;BME280;62152;52.078;8.414;2022-08-03T05:44:04;100120.25;;;23.25;52.77
56514;BME280;62152;52.078;8.414;2022-08-03T05:45:49;100124.22;;;23.27;52.73
56514;BME280;62152;52.078;8.414;2022-08-03T05:47:38;100122.22;;;23.28;52.93
56514;BME280;62152;52.078;8.414;2022-08-03T05:49:25;100133.31;;;23.28;52.76
56514;BME280;62152;52.078;8.414;2022-08-03T05:51:10;100121.44;;;23.27;52.77
56514;BME280;62152;52.078;8.414;2022-08-03T05:52:54;100123.44;;;23.27;52.94
56514;BME280;62152;52.078;8.414;2022-08-03T05:54:41;100126.56;;;23.25;52.80
56514;BME280;62152;52.078;8.414;2022-08-03T05:56:26;100133.31;;;23.28;52.69
56514;BME280;62152;52.078;8.414;2022-08-03T05:58:11;100124.22;;;23.27;53.02
56514;BME280;62152;52.078;8.414;2022-08-03T05:59:56;100131.72;;;23.27;52.81
56514;BME280;62152;52.078;8.414;2022-08-03T06:01:41;100129.34;;;23.29;52.86
56514;BME280;62152;52.078;8.414;2022-08-03T06:03:29;100134.88;;;23.29;52.82
56514;BME280;62152;52.078;8.414;2022-08-03T06:05:14;100134.47;;;23.30;52.92
56514;BME280;62152;52.078;8.414;2022-08-03T06:06:59;100132.88;;;23.29;52.85
56514;BME280;62152;52.078;8.414;2022-08-03T06:08:47;100135.66;;;23.29;52.91
56514;BME280;62152;52.078;8.414;2022-08-03T06:10:33;100132.09;;;23.29;53.07
56514;BME280;62152;52.078;8.414;2022-08-03T06:12:18;100129.72;;;23.31;52.97
56514;BME280;62152;52.078;8.414;2022-08-03T06:14:04;100133.28;;;23.31;52.97
56514;BME280;62152;52.078;8.414;2022-08-03T06:15:49;100130.09;;;23.33;52.73
56514;BME280;62152;52.078;8.414;2022-08-03T06:17:43;100128.53;;;23.32;52.95
56514;BME280;62152;52.078;8.414;2022-08-03T06:19:32;100128.53;;;23.32;52.95
56514;BME280;62152;52.078;8.414;2022-08-03T06:21:17;100130.88;;;23.33;52.80
56514;BME280;62152;52.078;8.414;2022-08-03T06:23:02;100128.94;;;23.34;52.85
56514;BME280;62152;52.078;8.414;2022-08-03T06:24:48;100120.63;;;23.34;52.76
56514;BME280;62152;52.078;8.414;2022-08-03T06:26:33;100125.34;;;23.33;52.74
56514;BME280;62152;52.078;8.414;2022-08-03T06:28:18;100128.94;;;23.34;52.75
56514;BME280;62152;52.078;8.414;2022-08-03T06:30:04;100131.69;;;23.34;52.92
56514;BME280;62152;52.078;8.414;2022-08-03T06:31:53;100126.16;;;23.34;52.86
56514;BME280;62152;52.078;8.414;2022-08-03T06:33:38;100131.69;;;23.34;52.86
56514;BME280;62152;52.078;8.414;2022-08-03T06:35:25;100119.81;;;23.33;52.80
56514;BME280;62152;52.078;8.414;2022-08-03T06:37:11;100123.78;;;23.36;52.69
56514;BME280;62152;52.078;8.414;2022-08-03T06:38:56;100117.44;;;23.35;52.70
56514;BME280;62152;52.078;8.414;2022-08-03T06:40:41;100122.97;;;23.35;52.98
56514;BME280;62152;52.078;8.414;2022-08-03T06:42:26;100129.31;;;23.36;52.95
56514;BME280;62152;52.078;8.414;2022-08-03T06:44:12;100134.84;;;23.36;52.78
56514;BME280;62152;52.078;8.414;2022-08-03T06:45:57;100132.84;;;23.36;52.73
56514;BME280;62152;52.078;8.414;2022-08-03T06:47:43;100127.72;;;23.35;52.70
56514;BME280;62152;52.078;8.414;2022-08-03T06:49:28;100137.59;;;23.36;52.94
56514;BME280;62152;52.078;8.414;2022-08-03T06:51:15;100136.03;;;23.35;52.92
56514;BME280;62152;52.078;8.414;2022-08-03T06:53:02;100140.38;;;23.36;52.72
56514;BME280;62152;52.078;8.414;2022-08-03T06:54:48;100144.34;;;23.35;52.95
56514;BME280;62152;52.078;8.414;2022-08-03T06:56:33;100145.91;;;23.36;52.73
56514;BME280;62152;52.078;8.414;2022-08-03T06:58:18;100148.25;;;23.37;52.71
56514;BME280;62152;52.078;8.414;2022-08-03T07:00:04;100140.75;;;23.38;52.64
56514;BME280;62152;52.078;8.414;2022-08-03T07:01:53;100139.19;;;23.37;52.82
56514;BME280;62152;52.078;8.414;2022-08-03T07:03:38;100141.53;;;23.38;52.69
56514;BME280;62152;52.078;8.414;2022-08-03T07:05:25;100141.53;;;23.38;52.55
56514;BME280;62152;52.078;8.414;2022-08-03T07:07:13;100137.97;;;23.38;52.83
56514;BME280;62152;52.078;8.414;2022-08-03T07:09:00;100142.72;;;23.37;52.54
56514;BME280;62152;52.078;8.414;2022-08-03T07:10:45;100145.88;;;23.39;52.61
56514;BME280;62152;52.078;8.414;2022-08-03T07:12:31;100138.75;;;23.38;52.77
56514;BME280;62152;52.078;8.414;2022-08-03T07:14:17;100141.13;;;23.40;52.59
56514;BME280;62152;52.078;8.414;2022-08-03T07:16:03;100143.09;;;23.39;52.61
56514;BME280;62152;52.078;8.414;2022-08-03T07:17:48;100150.63;;;23.39;52.59
56514;BME280;62152;52.078;8.414;2022-08-03T07:19:34;100145.09;;;23.39;52.59
56514;BME280;62152;52.078;8.414;2022-08-03T07:21:19;100151.41;;;23.39;52.72
56514;BME280;62152;52.078;8.414;2022-08-03T07:23:07;100145.88;;;23.39;52.64
56514;BME280;62152;52.078;8.414;2022-08-03T07:24:53;100148.25;;;23.41;52.55
56514;BME280;62152;52.078;8.414;2022-08-03T07:26:38;100157.72;;;23.40;52.55
56514;BME280;62152;52.078;8.414;2022-08-03T07:28:23;100152.19;;;23.40;52.75
56514;BME280;62152;52.078;8.414;2022-08-03T07:30:10;100160.50;;;23.40;52.69
56514;BME280;62152;52.078;8.414;2022-08-03T07:31:56;100151.03;;;23.41;52.48
56514;BME280;62152;52.078;8.414;2022-08-03T07:33:42;100152.19;;;23.40;52.71
56514;BME280;62152;52.078;8.414;2022-08-03T07:35:27;100152.59;;;23.42;52.55
56514;BME280;62152;52.078;8.414;2022-08-03T07:37:12;100155.38;;;23.42;52.53
56514;BME280;62152;52.078;8.414;2022-08-03T07:39:00;100158.13;;;23.42;52.50
56514;BME280;62152;52.078;8.414;2022-08-03T07:40:45;100158.91;;;23.42;52.51
56514;BME280;62152;52.078;8.414;2022-08-03T07:42:30;100156.94;;;23.43;52.46
56514;BME280;62152;52.078;8.414;2022-08-03T07:44:16;100148.63;;;23.43;52.37
56514;BME280;62152;52.078;8.414;2022-08-03T07:46:02;100147.44;;;23.44;52.36
56514;BME280;62152;52.078;8.414;2022-08-03T07:47:47;100159.72;;;23.43;52.58
56514;BME280;62152;52.078;8.414;2022-08-03T07:49:32;100154.16;;;23.43;52.39
56514;BME280;62152;52.078;8.414;2022-08-03T07:51:17;100162.06;;;23.44;52.51
56514;BME280;62152;52.078;8.414;2022-08-03T07:53:02;100154.97;;;23.43;52.42
56514;BME280;62152;52.078;8.414;2022-08-03T07:54:47;100149.00;;;23.45;52.49
56514;BME280;62152;52.078;8.414;2022-08-03T07:56:32;100147.44;;;23.44;52.57
56514;BME280;62152;52.078;8.414;2022-08-03T07:58:17;100151.41;;;23.43;52.47
56514;BME280;62152;52.078;8.414;2022-08-03T08:00:07;100152.19;;;23.43;52.58
56514;BME280;62152;52.078;8.414;2022-08-03T08:01:57;100152.56;;;23.45;52.34
56514;BME280;62152;52.078;8.414;2022-08-03T08:03:42;100157.31;;;23.45;52.40
56514;BME280;62152;52.078;8.414;2022-08-03T08:05:27;100153.34;;;23.46;52.51
56514;BME280;62152;52.078;8.414;2022-08-03T08:07:12;100156.13;;;23.46;52.56
56514;BME280;62152;52.078;8.414;2022-08-03T08:08:58;100153.34;;;23.46;52.34
56514;BME280;62152;52.078;8.414;2022-08-03T08:10:45;100158.88;;;23.46;52.33
56514;BME280;62152;52.078;8.414;2022-08-03T08:12:30;100151.38;;;23.46;52.41
56514;BME280;62152;52.078;8.414;2022-08-03T08:14:15;100152.19;;;23.47;52.27
56514;BME280;62152;52.078;8.414;2022-08-03T08:16:00;100151.38;;;23.46;52.48
56514;BME280;62152;52.078;8.414;2022-08-03T08:17:47;100155.75;;;23.47;52.27
56514;BME280;62152;52.078;8.414;2022-08-03T08:19:34;100156.53;;;23.48;52.47
56514;BME280;62152;52.078;8.414;2022-08-03T08:21:19;100153.34;;;23.46;52.52
56514;BME280;62152;52.078;8.414;2022-08-03T08:23:06;100148.59;;;23.46;52.52
56514;BME280;62152;52.078;8.414;2022-08-03T08:24:52;100162.84;;;23.48;52.39
56514;BME280;62152;52.078;8.414;2022-08-03T08:26:40;100151.78;;;23.48;52.25
56514;BME280;62152;52.078;8.414;2022-08-03T08:28:25;100155.31;;;23.49;52.29
56514;BME280;62152;52.078;8.414;2022-08-03T08:30:12;100155.75;;;23.47;52.38
56514;BME280;62152;52.078;8.414;2022-08-03T08:31:59;100153.75;;;23.48;52.28
56514;BME280;62152;52.078;8.414;2022-08-03T08:33:44;100152.97;;;23.47;52.50
56514;BME280;62152;52.078;8.414;2022-08-03T08:35:29;100164.81;;;23.48;52.27
56514;BME280;62152;52.078;8.414;2022-08-03T08:37:14;100156.53;;;23.48;52.53
56514;BME280;62152;52.078;8.414;2022-08-03T08:39:00;100159.28;;;23.48;52.32
56514;BME280;62152;52.078;8.414;2022-08-03T08:40:45;100166.41;;;23.49;52.47
56514;BME280;62152;52.078;8.414;2022-08-03T08:42:36;100155.31;;;23.49;52.23
56514;BME280;62152;52.078;8.414;2022-08-03T08:44:22;100155.31;;;23.49;52.33
56514;BME280;62152;52.078;8.414;2022-08-03T08:46:11;100163.63;;;23.49;52.32
56514;BME280;62152;52.078;8.414;2022-08-03T08:48:01;100165.19;;;23.50;52.55
56514;BME280;62152;52.078;8.414;2022-08-03T08:49:52;100160.47;;;23.51;52.56
56514;BME280;62152;52.078;8.414;2022-08-03T08:51:40;100156.91;;;23.50;52.30
56514;BME280;62152;52.078;8.414;2022-08-03T08:53:30;100158.88;;;23.50;52.33
56514;BME280;62152;52.078;8.414;2022-08-03T08:55:22;100157.69;;;23.51;52.55
56514;BME280;62152;52.078;8.414;2022-08-03T08:57:08;100152.16;;;23.51;52.63
56514;BME280;62152;52.078;8.414;2022-08-03T08:58:59;100157.69;;;23.51;52.52
56514;BME280;62152;52.078;8.414;2022-08-03T09:00:45;100148.59;;;23.50;52.33
56514;BME280;62152;52.078;8.414;2022-08-03T09:02:30;100158.47;;;23.51;52.50
56514;BME280;62152;52.078;8.414;2022-08-03T09:04:16;100153.31;;;23.53;52.43
56514;BME280;62152;52.078;8.414;2022-08-03T09:06:03;100151.75;;;23.52;52.30
56514;BME280;62152;52.078;8.414;2022-08-03T09:07:48;100156.06;;;23.53;52.43
56514;BME280;62152;52.078;8.414;2022-08-03T09:09:34;100146.19;;;23.52;52.36
56514;BME280;62152;52.078;8.414;2022-08-03T09:11:23;100144.22;;;23.53;52.39
56514;BME280;62152;52.078;8.414;2022-08-03T09:13:08;100145.78;;;23.54;52.28
56514;BME280;62152;52.078;8.414;2022-08-03T09:14:56;100148.56;;;23.54;52.51
56514;BME280;62152;52.078;8.414;2022-08-03T09:16:55;100141.06;;;23.54;52.41
56514;BME280;62152;52.078;8.414;2022-08-03T09:18:45;100149.38;;;23.54;52.27
56514;BME280;62152;52.078;8.414;2022-08-03T09:20:33;100138.31;;;23.54;52.44
56514;BME280;62152;52.078;8.414;2022-08-03T09:22:18;100147.41;;;23.55;52.44
56514;BME280;62152;52.078;8.414;2022-08-03T09:24:05;100152.13;;;23.54;52.48